Latest Weather Observations for Hay Airport

IDN60801

Issued at 12:03 pm EST Saturday 30 May 2015 (issued every 30 minutes, with the page automatically refreshed every 10 minutes)

About weather observations | Map of weather stations | Latest weather observations for NSW | Other Formats
Station Details ID: 075019 Name: HAY AIRPORT AWS Lat: -34.54 Lon: 144.83 Height: 92.0 m
Data from the previous 72 hours. | See also: Recent months for locations in New South Wales
Date/Time
EST
Temp
°C
App
Temp
°C
Dew
Point
Rel
Hum
%
Delta-T
°C
Wind Press
QNH
hPa
Press
MSL
hPa
Rain
since 9 am
mm
Dir
 
Spd
km/h
Gust
km/h
Spd
kts
Gust
kts
30/12:00pm 16.0 12.5 5.6 50 5.0 WNW 13 19 7 10 1022.8 1022.8 0.0
30/11:30am 15.5 13.1 5.4 51 4.8 W 7 11 4 6 1023.4 1023.4 0.0
30/11:00am 14.8 12.6 5.3 53 4.5 NW 6 11 3 6 1024.0 1024.0 0.0
30/10:30am 14.4 11.8 6.0 57 4.0 NW 9 13 5 7 1024.2 1024.2 0.0
30/10:00am 13.5 11.0 6.6 63 3.3 NW 9 11 5 6 1024.5 1024.5 0.0
30/09:30am 12.8 9.8 6.2 64 3.1 NNW 11 13 6 7 1024.6 1024.6 0.0
30/09:00am 11.4 9.2 6.1 70 2.5 NW 7 9 4 5 1024.2 1024.2 0.0
30/08:30am 10.5 8.5 6.1 74 2.1 NNW 6 7 3 4 1024.2 1024.2 0.0
30/08:00am 8.9 6.7 6.2 83 1.2 NNW 7 7 4 4 1024.2 1024.2 0.0
30/07:30am 8.8 6.5 5.5 80 1.5 NW 7 9 4 5 1023.9 1023.9 0.0
30/07:00am 9.2 6.6 5.9 80 1.5 NW 9 9 5 5 1023.9 1023.9 0.0
30/06:30am 9.9 7.2 5.5 74 2.0 N 9 13 5 7 1023.5 1023.5 0.0
30/06:00am 9.2 6.0 5.2 76 1.8 NNE 11 13 6 7 1023.3 1023.3 0.0
30/05:30am 9.9 6.8 5.7 75 1.9 NNE 11 13 6 7 1023.1 1023.1 0.0
30/05:00am 9.2 6.5 5.6 78 1.6 NNE 9 11 5 6 1023.0 1023.0 0.0
30/04:30am 9.1 6.3 5.3 77 1.7 NE 9 11 5 6 1022.8 1022.8 0.0
30/04:00am 10.2 7.1 5.6 73 2.1 NE 11 15 6 8 1023.0 1023.0 0.0
30/03:30am 9.6 6.9 5.8 77 1.7 NNE 9 13 5 7 1023.4 1023.4 0.0
30/03:00am 9.6 6.6 6.0 78 1.7 NNE 11 13 6 7 1023.3 1023.3 0.0
30/02:30am 9.1 6.1 5.8 80 1.5 NE 11 11 6 6 1023.5 1023.5 0.0
30/02:00am 7.6 4.9 5.4 86 1.0 N 9 13 5 7 1024.0 1024.0 0.0
30/01:30am 7.7 6.5 4.8 82 1.3 CALM 0 0 0 0 1024.0 1024.0 0.0
30/01:00am 9.1 8.1 5.7 79 1.5 CALM 0 0 0 0 1024.2 1024.2 0.0
30/12:30am 9.5 7.2 5.7 77 1.7 NE 7 9 4 5 1024.3 1024.3 0.0
30/12:00am 10.1 8.1 6.3 77 1.8 NE 6 7 3 4 1024.6 1024.6 0.0
 
Date/Time
EST
Temp
°C
App
Temp
°C
Dew
Point
Rel
Hum
%
Delta-T
°C
Wind Press
QNH
hPa
Press
MSL
hPa
Rain
since 9 am
mm
Dir
 
Spd
km/h
Gust
km/h
Spd
kts
Gust
kts
29/11:30pm 9.9 7.8 5.9 76 1.8 NE 6 6 3 3 1024.9 1024.9 0.0
29/11:00pm 9.6 8.0 6.5 81 1.4 ENE 4 7 2 4 1025.0 1025.0 0.0
29/10:30pm 9.3 8.4 6.2 81 1.4 CALM 0 0 0 0 1025.0 1025.0 0.0
29/10:00pm 9.0 8.0 5.7 80 1.5 CALM 0 0 0 0 1025.0 1025.0 0.0
29/09:30pm 8.4 7.3 5.3 81 1.4 CALM 0 4 0 2 1024.8 1024.8 0.0
29/09:00pm 8.1 7.0 5.2 82 1.3 CALM 0 0 0 0 1024.9 1024.9 0.0
29/08:30pm 7.8 6.6 4.7 81 1.4 CALM 0 0 0 0 1024.9 1024.9 0.0
29/08:00pm 7.6 6.4 4.6 81 1.3 CALM 0 0 0 0 1024.5 1024.5 0.0
29/07:30pm 7.7 6.4 3.9 77 1.6 CALM 0 0 0 0 1024.0 1024.0 0.0
29/07:00pm 9.7 6.8 4.7 71 2.2 SSW 9 9 5 5 1023.8 1023.8 0.0
29/06:30pm 10.6 7.4 5.2 69 2.5 SW 11 13 6 7 1023.6 1023.6 0.0
29/06:00pm 11.7 9.0 5.6 66 2.8 SW 9 11 5 6 1023.3 1023.3 0.0
29/05:30pm 13.1 10.5 6.0 62 3.4 SW 9 13 5 7 1023.3 1023.3 0.0
29/05:00pm 14.5 11.5 6.1 57 4.0 SW 11 15 6 8 1023.2 1023.2 0.0
29/04:30pm 15.8 12.5 6.3 53 4.6 W 13 19 7 10 1022.9 1022.9 0.0
29/04:00pm 16.7 12.5 5.9 49 5.2 W 17 20 9 11 1022.7 1022.7 0.0
29/03:30pm 16.6 13.5 5.6 48 5.3 W 11 15 6 8 1022.9 1022.9 0.0
29/03:00pm 17.3 12.5 5.6 46 5.7 W 20 24 11 13 1022.8 1022.8 0.0
29/02:30pm 17.4 12.8 5.4 45 5.8 W 19 26 10 14 1022.7 1022.7 0.0
29/02:00pm 17.7 13.1 6.6 48 5.5 W 20 30 11 16 1022.6 1022.6 0.0
29/01:30pm 16.4 12.1 7.1 54 4.6 WSW 19 26 10 14 1023.0 1023.0 0.0
29/01:00pm 16.6 13.2 7.8 56 4.4 WSW 15 22 8 12 1023.3 1023.3 0.0
29/12:30pm 16.1 12.1 6.8 54 4.6 W 17 26 9 14 1023.6 1023.6 0.0
29/12:00pm 16.0 13.3 7.2 56 4.4 W 11 17 6 9 1023.9 1023.9 0.0
29/11:30am 15.8 13.2 7.6 58 4.1 WSW 11 19 6 10 1024.2 1024.2 0.0
29/11:00am 15.3 12.8 8.3 63 3.5 W 11 15 6 8 1024.5 1024.5 0.0
29/10:30am 14.4 13.0 9.4 72 2.6 W 7 11 4 6 1024.4 1024.4 0.0
29/10:00am 12.9 13.1 10.6 86 1.2 CALM 0 0 0 0 1024.4 1024.4 0.0
29/09:30am 11.7 11.9 10.4 92 0.7 CALM 0 0 0 0 1024.2 1024.2 0.0
29/09:00am 10.8 9.7 10.0 95 0.4 WNW 6 7 3 4 1024.1 1024.1 0.0
29/08:30am 10.0 9.9 9.5 97 0.3 CALM 0 4 0 2 1024.2 1024.2 0.0
29/08:00am 9.3 8.8 9.2 99 0.0 WSW 2 6 1 3 1023.7 1023.7 0.0
29/07:30am 8.6 6.9 8.5 99 0.0 SW 7 9 4 5 1023.2 1023.2 0.0
29/07:00am 8.4 6.6 8.1 98 0.1 WSW 7 9 4 5 1022.7 1022.7 0.0
29/06:30am 8.3 6.5 7.9 97 0.2 W 7 9 4 5 1022.7 1022.7 0.0
29/06:00am 8.6 6.9 8.2 97 0.2 SW 7 11 4 6 1021.7 1021.8 0.0
29/05:30am 8.8 6.3 8.2 96 0.3 SW 11 15 6 8 1021.3 1021.4 0.0
29/05:00am 9.4 7.0 8.6 95 0.4 WSW 11 13 6 7 1021.3 1021.4 0.0
29/04:30am 9.9 8.0 9.0 94 0.4 WSW 9 11 5 6 1021.2 1021.3 0.0
29/04:00am 10.8 8.3 9.7 93 0.6 SW 13 15 7 8 1020.7 1020.7 0.0
29/03:30am 10.8 8.0 9.9 94 0.5 SW 15 17 8 9 1020.5 1020.5 0.0
29/03:00am 10.7 8.3 10.1 96 0.3 WSW 13 15 7 8 1020.7 1020.7 0.0
29/02:30am 11.0 9.1 10.5 97 0.3 WSW 11 13 6 7 1020.4 1020.4 0.0
29/02:00am 11.4 8.9 11.1 98 0.2 W 15 17 8 9 1020.4 1020.4 0.0
29/01:30am 12.1 9.8 11.9 99 0.1 WNW 15 17 8 9 1020.1 1020.1 0.0
29/01:00am 12.1 9.8 11.9 99 0.1 WNW 15 17 8 9 1019.9 1019.9 0.0
29/12:30am 12.5 10.3 12.2 98 0.2 NW 15 17 8 9 1019.7 1019.7 0.0
29/12:00am 12.9 10.8 12.3 96 0.3 NW 15 17 8 9 1019.7 1019.7 0.0
 
Date/Time
EST
Temp
°C
App
Temp
°C
Dew
Point
Rel
Hum
%
Delta-T
°C
Wind Press
QNH
hPa
Press
MSL
hPa
Rain
since 9 am
mm
Dir
 
Spd
km/h
Gust
km/h
Spd
kts
Gust
kts
28/11:30pm 13.1 11.0 12.5 96 0.3 NNW 15 20 8 11 1019.6 1019.6 0.0
28/11:00pm 13.3 11.2 12.4 94 0.5 NNW 15 17 8 9 1019.5 1019.5 0.0
28/10:30pm 13.7 11.2 12.4 92 0.7 NNW 17 20 9 11 1019.6 1019.6 0.0
28/10:00pm 14.4 12.0 12.6 89 1.0 NNW 17 20 9 11 1019.7 1019.7 0.0
28/09:30pm 14.8 12.4 12.7 87 1.2 NNW 17 22 9 12 1019.8 1019.8 0.0
28/09:00pm 15.4 13.1 12.9 85 1.4 NNW 17 20 9 11 1019.5 1019.5 0.0
28/08:30pm 15.7 13.0 12.8 83 1.6 NNW 19 24 10 13 1019.4 1019.4 0.0
28/08:00pm 15.9 12.9 12.6 81 1.8 NNW 20 26 11 14 1019.4 1019.4 0.0
28/07:30pm 16.3 14.3 12.8 80 1.9 NNW 15 19 8 10 1018.9 1018.9 0.0
28/07:00pm 16.6 14.2 12.8 78 2.1 NNW 17 20 9 11 1018.9 1018.9 0.0
28/06:30pm 16.6 15.0 12.8 78 2.1 N 13 15 7 8 1018.5 1018.5 0.0
28/06:00pm 17.3 15.8 13.0 76 2.4 N 13 15 7 8 1018.2 1018.2 0.0
28/05:30pm 17.6 16.0 12.7 73 2.7 N 13 19 7 10 1018.1 1018.1 0.0
28/05:00pm 18.5 15.6 12.9 70 3.2 NNW 20 26 11 14 1018.2 1018.2 0.0
28/04:30pm 18.8 16.0 12.5 67 3.5 NNW 19 24 10 13 1018.1 1018.1 0.0
28/04:00pm 19.1 16.2 12.8 67 3.5 NNW 20 28 11 15 1018.2 1018.2 0.0
28/03:30pm 19.3 15.1 12.3 64 3.9 NNW 26 32 14 17 1018.2 1018.2 0.0
28/03:00pm 19.5 15.8 12.7 65 3.8 NNW 24 30 13 16 1018.3 1018.3 0.0
28/02:30pm 19.7 16.0 12.7 64 4.0 NNW 24 32 13 17 1018.3 1018.3 0.0
28/02:00pm 20.2 15.8 12.9 63 4.1 NNW 28 35 15 19 1018.4 1018.4 0.0
28/01:30pm 20.1 16.4 12.8 63 4.1 NNW 24 30 13 16 1018.6 1018.6 0.0
28/01:00pm 20.1 15.7 12.8 63 4.1 NNW 28 35 15 19 1019.2 1019.2 0.0
28/12:30pm 20.3 16.4 13.3 64 4.0 N 26 33 14 18 1019.4 1019.4 0.0
28/12:00pm 18.9 16.4 14.0 73 2.8 N 20 26 11 14 1019.9 1019.9 0.0
28/11:30am 17.3 14.6 13.6 79 2.1 N 20 28 11 15 1020.4 1020.4 0.0
28/11:00am 16.6 13.0 13.1 80 2.0 N 24 32 13 17 1021.1 1021.1 0.0
28/10:30am 15.6 12.5 13.3 86 1.3 N 22 28 12 15 1021.3 1021.4 0.0
28/10:00am 13.9 10.7 13.1 95 0.4 N 22 26 12 14 1021.4 1021.5 0.0
28/09:30am 12.2 9.2 12.0 99 0.1 N 19 26 10 14 1021.4 1021.5 0.0
28/09:00am 11.7 8.9 11.5 99 0.1 N 17 20 9 11 1021.4 1021.5 0.0
28/08:30am 11.2 9.1 11.0 99 0.1 NNE 13 19 7 10 1021.2 1021.3 0.0
28/08:00am 10.9 9.1 10.7 99 0.1 NNE 11 13 6 7 1021.0 1021.0 0.0
28/07:30am 11.1 8.6 10.9 99 0.1 N 15 19 8 10 1020.8 1020.8 0.0
28/07:00am 11.3 9.6 11.1 99 0.1 N 11 13 6 7 1020.5 1020.5 0.0
28/06:30am 11.3 9.2 11.1 99 0.1 N 13 17 7 9 1020.4 1020.4 0.0
28/06:00am 11.2 8.7 11.0 99 0.1 N 15 19 8 10 1020.1 1020.1 0.0
28/05:30am 11.2 8.3 11.0 99 0.1 N 17 20 9 11 1020.0 1020.0 0.0
28/05:00am 11.1 8.2 10.9 99 0.1 N 17 22 9 12 1019.9 1019.9 0.0
28/04:30am 11.0 8.8 10.7 98 0.2 N 13 20 7 11 1020.3 1020.3 0.0
28/04:00am 11.4 8.8 10.8 96 0.3 N 15 19 8 10 1020.2 1020.2 0.0
28/03:30am 11.9 8.5 11.1 95 0.4 N 20 26 11 14 1020.3 1020.3 0.0
28/03:00am 11.9 8.4 11.0 94 0.5 N 20 24 11 13 1020.5 1020.5 0.0
28/02:30am 12.1 9.5 10.8 92 0.7 N 15 20 8 11 1020.5 1020.5 0.0
28/02:00am 12.7 9.3 11.3 91 0.7 N 20 24 11 13 1020.6 1020.6 0.0
28/01:30am 12.7 9.3 11.1 90 0.8 N 20 26 11 14 1020.4 1020.4 0.0
28/01:00am 12.8 9.3 11.0 89 0.9 N 20 26 11 14 1020.6 1020.6 0.0
28/12:30am 13.3 9.9 11.2 87 1.1 N 20 26 11 14 1020.7 1020.7 0.0
28/12:00am 13.9 10.1 11.2 84 1.4 N 22 30 12 16 1020.8 1020.8 0.0
 
Date/Time
EST
Temp
°C
App
Temp
°C
Dew
Point
Rel
Hum
%
Delta-T
°C
Wind Press
QNH
hPa
Press
MSL
hPa
Rain
since 9 am
mm
Dir
 
Spd
km/h
Gust
km/h
Spd
kts
Gust
kts
27/11:30pm 14.3 10.9 11.3 82 1.6 N 20 26 11 14 1021.0 1021.0 0.0
27/11:00pm 15.3 12.0 11.5 78 2.0 NNE 20 26 11 14 1021.0 1021.0 0.0
27/10:30pm 15.6 11.9 11.6 77 2.2 N 22 28 12 15 1021.2 1021.3 0.0
27/10:00pm 15.0 11.5 11.0 77 2.1 NNE 20 26 11 14 1021.0 1021.0 0.0
27/09:30pm 15.1 11.6 10.9 76 2.2 NNE 20 26 11 14 1020.9 1020.9 0.0
27/09:00pm 15.6 12.1 11.0 74 2.5 NNE 20 26 11 14 1020.8 1020.8 0.0
27/08:30pm 14.9 11.4 10.1 73 2.5 NNE 19 22 10 12 1020.8 1020.8 0.0
27/08:00pm 15.2 12.2 9.3 68 3.0 NE 15 19 8 10 1020.8 1020.8 0.0
27/07:30pm 15.1 12.5 9.5 69 2.9 NNE 13 15 7 8 1020.6 1020.6 0.0
27/07:00pm 15.8 13.9 9.0 64 3.5 NNE 9 11 5 6 1020.5 1020.5 0.0
27/06:30pm 17.2 15.4 9.6 61 4.0 N 9 11 5 6 1020.4 1020.4 0.0
27/06:00pm 18.0 17.2 9.6 58 4.4 NNE 4 7 2 4 1020.3 1020.3 0.0
27/05:30pm 18.3 16.5 9.6 57 4.6 NNE 9 11 5 6 1020.0 1020.0 0.0
27/05:00pm 18.5 16.7 9.3 55 4.8 N 9 11 5 6 1019.9 1019.9 0.0
27/04:30pm 20.2 17.6 9.2 49 5.8 N 13 19 7 10 1019.8 1019.8 0.0
27/04:00pm 21.8 19.5 10.3 48 6.3 NNW 13 17 7 9 1019.8 1019.8 0.0
27/03:30pm 21.5 19.0 9.7 47 6.4 NNW 13 20 7 11 1019.8 1019.8 0.0
27/03:00pm 21.8 19.2 9.3 45 6.7 NW 13 17 7 9 1019.8 1019.8 0.0
27/02:30pm 21.8 19.8 10.0 47 6.4 NW 11 19 6 10 1020.0 1020.0 0.0
27/02:00pm 21.5 18.2 9.7 47 6.4 NNW 17 24 9 13 1020.1 1020.1 0.0
27/01:30pm 21.4 18.8 10.6 50 5.9 NNW 15 24 8 13 1020.3 1020.3 0.0
27/01:00pm 21.4 18.1 10.9 51 5.8 NNW 19 24 10 13 1020.8 1020.8 0.0
27/12:30pm 20.9 17.4 11.0 53 5.5 NW 20 26 11 14 1021.3 1021.4 0.0

Other Formats:

Comma delimited format used in spreadsheet applications
http://www.bom.gov.au/fwo/IDN60801/IDN60801.94702.axf

JavaScript Object Notation format (JSON) in row-major order
http://www.bom.gov.au/fwo/IDN60801/IDN60801.94702.json